Time;durP1;ratioP1;P1;durP2;ratioP2;P2;SDS_P1;SDS_P2;PMS_P1;PMS_P2;Temp;Humidity;BMP_temperature;BMP_pressure;BME280_temperature;BME280_humidity;BME280_pressure;Samples;Min_cycle;Max_cycle;Signal;HPM_P1;HPM_P2
2021/07/02 00:01:58;;;;;;;6.55;5.95;;;16.60;86.40;;;;;;5007373;28;20541;-85
2021/07/02 00:04:24;;;;;;;7.67;5.63;;;16.50;85.90;;;;;;5003983;28;20179;-85
2021/07/02 00:06:50;;;;;;;5.50;5.00;;;16.50;86.20;;;;;;4990097;28;20211;-85
2021/07/02 00:09:15;;;;;;;6.18;5.60;;;16.50;87.00;;;;;;5004962;28;20215;-85
2021/07/02 00:11:41;;;;;;;6.80;5.40;;;16.50;87.10;;;;;;5023236;28;20198;-86
2021/07/02 00:14:07;;;;;;;5.90;5.40;;;16.50;86.40;;;;;;5022840;28;20192;-85
2021/07/02 00:16:35;;;;;;;6.05;5.45;;;16.40;86.90;;;;;;5017992;28;20672;-85
2021/07/02 00:19:02;;;;;;;5.70;5.10;;;16.60;86.50;;;;;;5014720;28;20213;-85
2021/07/02 00:21:28;;;;;;;5.57;5.18;;;16.70;85.90;;;;;;5023512;28;20223;-85
2021/07/02 00:23:54;;;;;;;6.38;5.72;;;16.70;85.80;;;;;;5018110;28;20192;-85
2021/07/02 00:26:20;;;;;;;5.65;5.15;;;16.70;85.60;;;;;;5010759;28;20206;-85
2021/07/02 00:28:45;;;;;;;5.47;4.97;;;16.80;85.00;;;;;;5009040;28;20209;-85
2021/07/02 00:31:11;;;;;;;8.07;6.00;;;16.80;85.40;;;;;;5015341;28;20212;-86
2021/07/02 00:33:37;;;;;;;6.53;5.85;;;16.80;85.20;;;;;;5023505;28;20215;-85
2021/07/02 00:36:03;;;;;;;5.93;5.38;;;16.70;85.50;;;;;;5023477;28;20198;-85
2021/07/02 00:38:29;;;;;;;6.00;5.40;;;16.70;85.90;;;;;;5019204;28;20238;-85
2021/07/02 00:40:55;;;;;;;6.40;5.82;;;16.70;85.70;;;;;;5020469;28;20664;-85
2021/07/02 00:43:20;;;;;;;6.32;5.25;;;16.80;85.40;;;;;;5020998;28;20187;-85
2021/07/02 00:45:46;;;;;;;6.60;5.50;;;16.70;85.40;;;;;;4988879;28;20206;-86
2021/07/02 00:48:12;;;;;;;8.18;5.50;;;16.60;85.90;;;;;;5023139;28;20269;-85
2021/07/02 00:50:38;;;;;;;8.75;6.93;;;16.50;86.20;;;;;;5022515;28;20210;-84
2021/07/02 00:53:04;;;;;;;6.30;5.70;;;16.50;86.40;;;;;;5022676;28;20175;-85
2021/07/02 00:55:30;;;;;;;6.22;5.65;;;16.30;87.50;;;;;;4985730;28;20671;-85
2021/07/02 00:57:57;;;;;;;6.73;6.10;;;16.30;87.60;;;;;;4985368;28;20196;-85
2021/07/02 01:00:23;;;;;;;7.67;6.13;;;16.20;87.90;;;;;;4992613;28;20234;-85
2021/07/02 01:02:49;;;;;;;6.03;5.53;;;16.40;87.90;;;;;;5012589;28;20203;-86
2021/07/02 01:05:15;;;;;;;6.97;6.37;;;16.50;87.40;;;;;;5013010;28;20190;-86
2021/07/02 01:07:42;;;;;;;7.47;6.30;;;16.30;88.00;;;;;;5014109;28;20308;-85
2021/07/02 01:10:09;;;;;;;7.27;6.40;;;16.20;89.80;;;;;;5006219;28;20229;-86
2021/07/02 01:12:35;;;;;;;6.13;5.43;;;16.00;89.60;;;;;;5007053;28;20174;-85
2021/07/02 01:15:01;;;;;;;7.63;6.83;;;16.00;89.90;;;;;;5013744;28;20215;-86
2021/07/02 01:17:26;;;;;;;9.90;7.07;;;16.10;89.30;;;;;;5022647;28;20187;-85
2021/07/02 01:19:53;;;;;;;6.17;5.57;;;16.00;89.20;;;;;;5022688;28;20871;-85
2021/07/02 01:22:24;;;;;;;6.40;5.80;;;16.10;89.40;;;;;;5007598;28;20268;-85
2021/07/02 01:24:51;;;;;;;6.97;6.27;;;16.10;89.30;;;;;;5030385;28;20205;-85
2021/07/02 01:27:18;;;;;;;7.43;6.43;;;16.20;89.00;;;;;;5021084;28;20216;-85
2021/07/02 01:29:44;;;;;;;7.70;6.73;;;16.10;88.40;;;;;;4999523;28;20302;-84
2021/07/02 01:32:10;;;;;;;6.83;6.23;;;15.80;89.80;;;;;;5017826;28;20544;-85
2021/07/02 01:34:38;;;;;;;8.37;6.90;;;15.80;90.20;;;;;;5021725;28;20593;-84
2021/07/02 01:37:04;;;;;;;9.07;6.63;;;15.80;89.80;;;;;;5003737;28;20196;-84
2021/07/02 01:39:30;;;;;;;7.17;6.47;;;15.80;90.10;;;;;;5011192;28;20210;-83
2021/07/02 01:41:56;;;;;;;7.83;7.17;;;15.60;90.90;;;;;;5001478;28;20277;-84
2021/07/02 01:44:22;;;;;;;6.40;5.77;;;15.70;90.20;;;;;;5002295;28;20201;-84
2021/07/02 01:46:49;;;;;;;7.50;6.73;;;15.80;90.30;;;;;;5001317;28;20207;-84
2021/07/02 01:49:15;;;;;;;6.97;6.37;;;15.70;89.60;;;;;;4993044;28;20201;-84
2021/07/02 01:51:41;;;;;;;8.43;6.77;;;15.60;90.40;;;;;;5004052;28;20204;-84
2021/07/02 01:54:06;;;;;;;7.87;7.00;;;15.60;91.00;;;;;;5006752;28;20713;-84
2021/07/02 01:56:32;;;;;;;8.17;7.37;;;15.60;90.60;;;;;;4984480;28;20190;-83
2021/07/02 01:58:58;;;;;;;7.47;6.73;;;15.40;91.10;;;;;;5008456;28;20268;-84
2021/07/02 02:01:24;;;;;;;9.13;7.00;;;15.40;91.50;;;;;;5007119;28;20182;-84
2021/07/02 02:03:52;;;;;;;7.80;7.10;;;15.40;91.10;;;;;;4989855;28;20185;-84
2021/07/02 02:06:18;;;;;;;7.07;6.37;;;15.30;91.40;;;;;;5021614;28;20189;-85
2021/07/02 02:08:44;;;;;;;9.23;6.50;;;15.30;91.40;;;;;;5000178;28;20221;-84
2021/07/02 02:11:10;;;;;;;7.73;6.87;;;15.30;91.70;;;;;;5017184;28;20303;-84
2021/07/02 02:13:35;;;;;;;8.30;7.50;;;15.40;91.40;;;;;;5004216;28;20184;-85
2021/07/02 02:16:01;;;;;;;7.47;6.47;;;15.50;89.90;;;;;;4984707;28;20191;-85
2021/07/02 02:18:26;;;;;;;6.83;6.23;;;15.60;90.40;;;;;;5002183;28;20221;-85
2021/07/02 02:20:52;;;;;;;7.03;6.30;;;15.70;89.90;;;;;;4988132;28;20663;-85
2021/07/02 02:23:18;;;;;;;7.40;6.70;;;15.70;89.60;;;;;;5021521;28;20186;-85
2021/07/02 02:25:44;;;;;;;8.07;6.60;;;15.80;89.30;;;;;;4974810;28;20220;-85
2021/07/02 02:28:09;;;;;;;7.97;6.40;;;15.80;88.70;;;;;;5017947;28;20210;-85
2021/07/02 02:30:36;;;;;;;10.70;6.57;;;15.70;88.60;;;;;;5017909;28;20198;-85
2021/07/02 02:33:06;;;;;;;9.33;6.97;;;15.50;89.30;;;;;;5005931;28;20178;-86
2021/07/02 02:35:32;;;;;;;8.27;7.43;;;15.20;90.70;;;;;;5016667;28;20177;-86
2021/07/02 02:37:59;;;;;;;7.90;7.10;;;15.20;90.70;;;;;;5007788;28;20209;-86
2021/07/02 02:40:25;;;;;;;8.97;7.03;;;15.00;91.80;;;;;;5005925;28;20302;-86
2021/07/02 02:42:51;;;;;;;8.77;7.33;;;14.90;92.80;;;;;;5005220;28;20212;-86
2021/07/02 02:45:17;;;;;;;9.60;7.10;;;14.80;92.90;;;;;;5005261;28;20212;-86
2021/07/02 02:47:42;;;;;;;7.70;7.00;;;14.80;93.20;;;;;;5024615;28;20227;-86
2021/07/02 02:50:09;;;;;;;10.03;7.70;;;14.80;93.20;;;;;;5012353;28;20292;-86
2021/07/02 02:52:34;;;;;;;8.27;7.40;;;14.70;93.60;;;;;;5004567;28;20636;-86
2021/07/02 02:55:00;;;;;;;8.67;7.80;;;14.80;93.00;;;;;;5005593;28;20202;-86
2021/07/02 02:57:26;;;;;;;8.17;7.33;;;14.90;93.00;;;;;;5012797;28;20190;-87
2021/07/02 02:59:52;;;;;;;8.77;7.97;;;14.70;93.90;;;;;;5010762;28;20208;-86
2021/07/02 03:02:18;;;;;;;8.03;7.23;;;14.70;93.50;;;;;;5005068;28;20752;-86
2021/07/02 03:04:43;;;;;;;8.67;7.77;;;14.80;93.70;;;;;;5003532;28;20186;-87
2021/07/02 03:07:09;;;;;;;8.10;7.13;;;14.70;93.80;;;;;;5024213;28;20219;-86
2021/07/02 03:09:35;;;;;;;7.97;7.00;;;14.80;93.80;;;;;;5012224;28;20233;-86
2021/07/02 03:12:02;;;;;;;8.60;7.37;;;14.80;93.50;;;;;;5013446;28;20185;-86
2021/07/02 03:14:27;;;;;;;8.33;7.53;;;14.80;93.80;;;;;;5024568;28;20176;-86
2021/07/02 03:16:53;;;;;;;9.53;7.33;;;14.90;93.30;;;;;;5023515;28;20187;-86
2021/07/02 03:19:19;;;;;;;8.40;7.33;;;14.90;92.90;;;;;;5008531;28;20213;-86
2021/07/02 03:21:46;;;;;;;7.83;7.07;;;15.00;92.30;;;;;;5003994;28;20208;-86
2021/07/02 03:24:12;;;;;;;9.60;7.50;;;15.00;92.90;;;;;;5005327;28;20754;-86
2021/07/02 03:26:38;;;;;;;8.60;7.13;;;15.00;92.80;;;;;;5014647;28;20185;-86
2021/07/02 03:29:04;;;;;;;9.47;7.90;;;14.90;92.70;;;;;;5015857;28;20207;-86
2021/07/02 03:31:31;;;;;;;8.80;7.80;;;14.90;93.10;;;;;;5012588;28;20254;-86
2021/07/02 03:33:56;;;;;;;8.03;7.10;;;15.00;92.90;;;;;;4987815;28;20183;-84
2021/07/02 03:36:22;;;;;;;8.67;7.17;;;15.10;92.70;;;;;;5008941;28;20203;-84
2021/07/02 03:38:48;;;;;;;7.77;7.07;;;15.10;92.10;;;;;;5023542;28;20211;-84
2021/07/02 03:41:14;;;;;;;8.47;7.63;;;15.00;92.60;;;;;;5006838;28;20186;-84
2021/07/02 03:43:40;;;;;;;8.07;7.30;;;15.10;92.40;;;;;;5019790;28;20301;-84
2021/07/02 03:46:06;;;;;;;10.43;7.33;;;15.20;91.50;;;;;;5004771;28;20591;-84
2021/07/02 03:48:32;;;;;;;8.60;7.70;;;15.10;91.90;;;;;;4990251;28;20276;-84
2021/07/02 03:50:58;;;;;;;8.37;7.27;;;15.00;92.80;;;;;;5014328;28;20642;-84
2021/07/02 03:53:23;;;;;;;7.83;7.13;;;14.90;93.00;;;;;;5006744;28;20690;-84
2021/07/02 03:55:49;;;;;;;8.73;6.60;;;15.00;92.70;;;;;;5023479;28;20188;-84
2021/07/02 03:58:15;;;;;;;9.63;7.77;;;15.10;92.40;;;;;;5022440;28;20178;-84
2021/07/02 04:00:40;;;;;;;9.07;7.10;;;14.90;92.80;;;;;;5009496;28;20202;-84
2021/07/02 04:03:08;;;;;;;8.47;7.57;;;15.00;92.70;;;;;;5016251;28;20169;-85
2021/07/02 04:05:33;;;;;;;7.80;7.10;;;14.90;93.10;;;;;;5021915;28;20207;-85
2021/07/02 04:07:59;;;;;;;11.73;8.10;;;14.90;93.10;;;;;;5019307;28;20210;-85
2021/07/02 04:10:24;;;;;;;8.70;7.43;;;15.00;92.50;;;;;;4998408;28;20227;-85
2021/07/02 04:12:50;;;;;;;10.30;7.77;;;15.00;92.60;;;;;;5008919;28;20189;-85
2021/07/02 04:15:16;;;;;;;8.00;7.00;;;15.10;92.20;;;;;;5013331;28;20179;-85
2021/07/02 04:17:42;;;;;;;8.37;7.47;;;14.90;92.90;;;;;;5003997;28;20289;-85
2021/07/02 04:20:09;;;;;;;8.60;7.77;;;14.80;93.50;;;;;;5009347;28;20210;-86
2021/07/02 04:22:36;;;;;;;9.57;8.17;;;14.80;93.40;;;;;;5004218;28;20256;-85
2021/07/02 04:25:04;;;;;;;11.63;8.33;;;14.70;94.00;;;;;;5003154;28;20183;-85
2021/07/02 04:27:30;;;;;;;10.07;8.90;;;14.70;94.50;;;;;;4985950;28;20210;-85
2021/07/02 04:29:56;;;;;;;8.63;7.83;;;14.60;94.60;;;;;;4994461;28;20221;-85
2021/07/02 04:32:22;;;;;;;14.20;8.67;;;14.60;94.70;;;;;;4985341;28;20183;-85
2021/07/02 04:34:47;;;;;;;11.23;8.50;;;14.50;95.40;;;;;;5004338;28;20186;-85
2021/07/02 04:37:13;;;;;;;10.57;8.60;;;14.60;94.80;;;;;;4997796;28;20218;-85
2021/07/02 04:39:39;;;;;;;8.97;8.03;;;14.70;94.60;;;;;;4999563;28;20213;-85
2021/07/02 04:42:06;;;;;;;8.80;8.00;;;14.70;94.60;;;;;;5016587;28;20213;-85
2021/07/02 04:44:35;;;;;;;9.83;8.80;;;14.70;94.50;;;;;;5002649;28;20699;-85
2021/07/02 04:47:00;;;;;;;9.80;8.60;;;14.70;94.50;;;;;;4988495;28;20197;-85
2021/07/02 04:49:26;;;;;;;10.23;9.13;;;14.60;95.40;;;;;;5015626;28;20577;-84
2021/07/02 04:51:52;;;;;;;9.83;8.17;;;14.60;95.60;;;;;;5004452;28;20178;-85
2021/07/02 04:54:17;;;;;;;12.97;9.10;;;14.60;95.90;;;;;;5021195;28;20201;-85
2021/07/02 04:56:47;;;;;;;11.00;9.03;;;14.60;96.50;;;;;;5019075;28;20236;-86
2021/07/02 04:59:17;;;;;;;10.00;8.40;;;14.60;96.60;;;;;;5012119;28;20903;-85
2021/07/02 05:01:44;;;;;;;12.03;9.03;;;14.60;97.20;;;;;;4998946;28;20276;-85
2021/07/02 05:04:10;;;;;;;11.60;9.30;;;14.50;97.40;;;;;;5018875;28;20191;-85
2021/07/02 05:06:37;;;;;;;11.20;9.43;;;14.50;98.00;;;;;;5008754;28;20172;-85
2021/07/02 05:09:05;;;;;;;9.47;8.53;;;14.50;97.60;;;;;;4998986;28;20259;-85
2021/07/02 05:11:33;;;;;;;10.30;9.30;;;14.50;97.90;;;;;;5019913;28;20185;-85
2021/07/02 05:13:59;;;;;;;10.53;9.40;;;14.60;97.90;;;;;;5017857;28;20184;-85
2021/07/02 05:16:24;;;;;;;12.13;9.47;;;14.70;97.30;;;;;;5017584;28;20215;-85
2021/07/02 05:18:50;;;;;;;11.17;9.77;;;14.70;97.80;;;;;;4993258;28;20215;-85
2021/07/02 05:21:16;;;;;;;11.10;9.97;;;14.80;97.20;;;;;;5006097;28;20184;-85
2021/07/02 05:23:41;;;;;;;12.67;10.80;;;14.80;97.30;;;;;;4998196;28;20195;-85
2021/07/02 05:26:09;;;;;;;10.90;9.80;;;14.70;97.60;;;;;;4998441;28;20201;-85
2021/07/02 05:28:35;;;;;;;11.37;10.07;;;14.70;98.10;;;;;;4998212;28;20253;-85
2021/07/02 05:31:01;;;;;;;11.00;9.90;;;14.80;97.30;;;;;;4997667;28;20180;-85
2021/07/02 05:33:27;;;;;;;10.57;9.57;;;14.80;97.00;;;;;;4998344;28;20193;-85
2021/07/02 05:35:52;;;;;;;12.97;10.40;;;14.90;96.30;;;;;;5018460;28;20284;-85
2021/07/02 05:38:18;;;;;;;10.63;9.47;;;15.00;95.80;;;;;;5001549;28;20249;-85
2021/07/02 05:40:44;;;;;;;10.23;8.90;;;15.00;96.60;;;;;;4998769;28;20682;-85
2021/07/02 05:43:10;;;;;;;11.67;10.50;;;15.20;95.40;;;;;;5001980;28;20716;-85
2021/07/02 05:45:35;;;;;;;11.50;10.03;;;15.20;94.60;;;;;;4983416;28;20268;-85
2021/07/02 05:48:02;;;;;;;12.83;9.60;;;15.30;94.20;;;;;;5007094;28;20221;-85
2021/07/02 05:50:28;;;;;;;10.27;9.17;;;15.30;94.50;;;;;;5020006;28;20394;-85
2021/07/02 05:52:55;;;;;;;11.30;10.10;;;15.20;95.60;;;;;;5019969;28;20178;-85
2021/07/02 05:55:25;;;;;;;10.90;9.80;;;15.20;95.40;;;;;;5002474;28;20250;-85
2021/07/02 05:57:51;;;;;;;10.97;9.37;;;15.30;95.10;;;;;;5019603;28;20182;-86
2021/07/02 06:00:18;;;;;;;10.93;9.83;;;15.30;95.70;;;;;;5029174;28;20226;-85
2021/07/02 06:02:44;;;;;;;10.33;9.17;;;15.30;95.40;;;;;;5023583;28;20186;-86
2021/07/02 06:05:10;;;;;;;11.07;9.50;;;15.60;92.90;;;;;;5014001;28;20234;-85
2021/07/02 06:07:50;;;;;;;11.13;10.03;;;15.70;92.50;;;;;;5006485;28;20257;-86
2021/07/02 06:10:19;;;;;;;10.73;9.70;;;15.50;94.10;;;;;;5019008;28;20312;-85
2021/07/02 06:12:45;;;;;;;9.63;8.83;;;15.60;93.90;;;;;;5011463;28;20251;-85
2021/07/02 06:15:12;;;;;;;12.80;10.57;;;15.70;94.20;;;;;;5000729;28;20286;-85
2021/07/02 06:17:42;;;;;;;10.93;9.80;;;15.70;93.20;;;;;;5000586;28;20276;-86
2021/07/02 06:20:09;;;;;;;11.20;10.10;;;15.70;93.10;;;;;;5007088;28;20201;-85
2021/07/02 06:22:35;;;;;;;10.73;9.60;;;15.80;93.70;;;;;;4991597;28;20194;-86
2021/07/02 06:25:02;;;;;;;11.10;10.00;;;15.90;91.90;;;;;;5012480;28;20277;-85
2021/07/02 06:27:28;;;;;;;10.43;9.40;;;16.00;92.80;;;;;;5006014;28;20211;-85
2021/07/02 06:29:53;;;;;;;9.57;8.67;;;16.00;92.00;;;;;;5001213;28;20210;-85
2021/07/02 06:32:20;;;;;;;11.83;10.27;;;16.00;92.00;;;;;;5003669;28;20197;-85
2021/07/02 06:34:45;;;;;;;11.13;8.87;;;15.90;92.80;;;;;;4974999;28;20205;-85
2021/07/02 06:37:11;;;;;;;11.07;9.40;;;16.00;93.40;;;;;;5016256;28;20186;-86
2021/07/02 06:39:37;;;;;;;9.37;8.47;;;16.00;94.10;;;;;;5004889;28;20685;-85
2021/07/02 06:42:03;;;;;;;10.80;9.37;;;16.30;91.10;;;;;;5001170;28;20213;-85
2021/07/02 06:44:29;;;;;;;10.77;9.77;;;16.50;90.40;;;;;;5012608;28;20186;-86
2021/07/02 06:46:55;;;;;;;11.00;10.00;;;16.70;89.00;;;;;;5002722;28;20216;-84
2021/07/02 06:49:20;;;;;;;10.60;9.70;;;16.80;88.60;;;;;;4988141;28;20316;-85
2021/07/02 06:51:46;;;;;;;10.57;9.47;;;16.80;84.50;;;;;;5013835;28;20194;-85
2021/07/02 06:54:12;;;;;;;10.47;9.47;;;17.00;84.40;;;;;;4997789;28;20175;-86
2021/07/02 06:56:59;;;;;;;10.83;9.73;;;16.90;86.00;;;;;;4998164;28;20578;-84
2021/07/02 06:59:23;;;;;;;10.20;9.10;;;16.90;84.80;;;;;;5003812;28;20218;-85
2021/07/02 07:01:49;;;;;;;9.57;8.57;;;16.90;85.00;;;;;;5022094;28;20174;-85
2021/07/02 07:04:14;;;;;;;11.40;10.27;;;17.10;83.60;;;;;;5019172;28;20196;-84
2021/07/02 07:06:40;;;;;;;10.63;9.63;;;17.20;84.70;;;;;;5002211;28;20185;-85
2021/07/02 07:09:05;;;;;;;11.70;9.10;;;17.00;85.40;;;;;;5005281;28;20217;-86
2021/07/02 07:11:31;;;;;;;9.53;8.73;;;17.20;84.20;;;;;;5002751;28;20187;-85
2021/07/02 07:13:57;;;;;;;12.10;9.33;;;17.20;84.90;;;;;;4992620;28;20185;-86
2021/07/02 07:16:22;;;;;;;11.27;9.50;;;17.20;83.80;;;;;;5006681;28;20193;-86
2021/07/02 07:18:48;;;;;;;10.07;9.07;;;17.20;85.70;;;;;;5012071;28;20211;-85
2021/07/02 07:21:13;;;;;;;10.53;8.93;;;17.10;86.20;;;;;;5007047;28;20269;-86
2021/07/02 07:23:39;;;;;;;9.60;8.73;;;17.10;84.80;;;;;;5005065;28;20252;-86
2021/07/02 07:26:05;;;;;;;11.60;9.53;;;17.30;82.80;;;;;;4987080;28;20189;-87
2021/07/02 07:28:30;;;;;;;11.37;9.60;;;17.40;83.80;;;;;;4986328;28;20557;-86
2021/07/02 07:30:56;;;;;;;9.83;8.90;;;17.40;84.20;;;;;;4994102;28;20190;-86
2021/07/02 07:33:22;;;;;;;10.13;9.10;;;17.50;83.40;;;;;;4999856;28;20201;-86
2021/07/02 07:35:49;;;;;;;10.40;9.33;;;17.60;81.60;;;;;;4996133;28;20274;-86
2021/07/02 07:38:16;;;;;;;10.73;9.63;;;17.70;79.90;;;;;;4999118;28;20235;-86
2021/07/02 07:40:41;;;;;;;9.13;8.27;;;17.60;79.20;;;;;;5001860;28;20240;-86
2021/07/02 07:43:07;;;;;;;9.88;8.93;;;17.80;77.20;;;;;;5003486;28;20219;-86
2021/07/02 07:45:33;;;;;;;9.03;8.23;;;17.80;79.00;;;;;;5007203;28;20222;-86
2021/07/02 07:47:58;;;;;;;10.03;9.03;;;17.90;78.20;;;;;;4984619;28;20203;-85
2021/07/02 07:50:26;;;;;;;9.50;8.70;;;18.10;77.10;;;;;;5001206;28;20242;-86
2021/07/02 07:55:19;;;;;;;9.93;8.90;;;18.20;75.50;;;;;;4983683;28;20214;-87
2021/07/02 07:57:45;;;;;;;9.20;8.30;;;18.30;74.60;;;;;;5003874;28;20192;-87
2021/07/02 08:00:11;;;;;;;8.80;7.97;;;18.40;72.10;;;;;;5009744;28;20274;-88
2021/07/02 08:02:37;;;;;;;9.80;8.73;;;18.50;74.30;;;;;;5006928;28;20197;-86
2021/07/02 08:05:05;;;;;;;8.60;7.80;;;18.60;74.90;;;;;;4991015;28;20293;-86
2021/07/02 08:07:38;;;;;;;8.63;7.78;;;18.70;74.80;;;;;;4989564;28;20199;-86
2021/07/02 08:10:07;;;;;;;9.52;8.13;;;18.80;70.90;;;;;;4995206;28;20231;-86
2021/07/02 08:12:33;;;;;;;9.10;8.07;;;18.90;70.30;;;;;;5007306;28;20174;-85
2021/07/02 08:14:58;;;;;;;9.80;8.63;;;19.00;68.90;;;;;;4991162;28;20197;-85
2021/07/02 08:17:28;;;;;;;9.13;8.18;;;19.00;72.60;;;;;;4992551;28;20195;-85
2021/07/02 08:19:55;;;;;;;9.23;8.15;;;18.90;71.40;;;;;;5005959;28;20209;-88
2021/07/02 08:22:20;;;;;;;9.57;8.68;;;19.00;71.70;;;;;;5010104;28;20281;-86
2021/07/02 08:24:46;;;;;;;8.30;7.50;;;19.20;69.40;;;;;;5016494;28;20213;-85
2021/07/02 08:27:11;;;;;;;9.75;8.65;;;19.20;71.50;;;;;;5008585;28;20233;-86
2021/07/02 08:29:37;;;;;;;9.23;8.13;;;19.50;70.20;;;;;;4999116;28;20656;-84
2021/07/02 08:32:03;;;;;;;8.95;8.15;;;19.60;67.70;;;;;;4992049;28;20522;-84
2021/07/02 08:34:29;;;;;;;9.10;8.30;;;19.50;66.10;;;;;;5003327;28;20193;-85
2021/07/02 08:36:54;;;;;;;9.30;8.00;;;19.60;65.30;;;;;;4997296;28;20205;-85
2021/07/02 08:39:20;;;;;;;8.88;8.00;;;19.70;62.80;;;;;;4960610;28;20220;-86
2021/07/02 08:41:46;;;;;;;9.10;8.20;;;19.60;63.50;;;;;;4989374;28;20553;-86
2021/07/02 08:44:12;;;;;;;14.18;8.68;;;19.60;64.80;;;;;;5010745;28;21005;-85
2021/07/02 08:46:39;;;;;;;9.98;9.05;;;19.90;66.00;;;;;;5005572;28;20526;-84
2021/07/02 08:49:05;;;;;;;8.70;7.85;;;20.10;68.80;;;;;;4996445;28;20230;-85
2021/07/02 08:51:32;;;;;;;8.88;8.07;;;20.30;66.10;;;;;;5007913;28;20232;-85
2021/07/02 08:53:58;;;;;;;11.68;8.18;;;20.50;63.10;;;;;;5004064;28;20253;-85
2021/07/02 08:56:24;;;;;;;9.40;8.50;;;20.70;62.70;;;;;;5007188;28;20268;-84
2021/07/02 08:58:50;;;;;;;9.63;8.60;;;20.70;59.90;;;;;;5009505;28;20221;-84
2021/07/02 09:01:42;;;;;;;9.75;8.77;;;20.70;60.60;;;;;;5004480;28;20545;-85
2021/07/02 09:04:15;;;;;;;9.65;8.75;;;20.80;60.20;;;;;;5022960;28;20212;-86
2021/07/02 09:06:44;;;;;;;10.13;9.07;;;20.80;61.70;;;;;;5019127;28;20735;-85
2021/07/02 09:09:09;;;;;;;9.93;9.05;;;20.80;61.50;;;;;;5015765;28;20272;-85
2021/07/02 09:11:37;;;;;;;10.00;8.32;;;21.00;60.50;;;;;;5005101;28;20196;-86
2021/07/02 09:14:04;;;;;;;9.30;8.43;;;21.00;60.90;;;;;;4992379;28;20680;-85
2021/07/02 09:16:41;;;;;;;9.25;8.40;;;21.20;61.10;;;;;;5008322;28;20195;-85
2021/07/02 09:19:28;;;;;;;9.02;8.02;;;21.60;55.80;;;;;;5009125;28;20191;-85
2021/07/02 09:22:15;;;;;;;9.43;8.63;;;21.80;54.30;;;;;;4993141;28;20180;-85
2021/07/02 09:24:44;;;;;;;8.82;7.95;;;21.60;56.10;;;;;;5011637;28;20181;-85
2021/07/02 09:27:31;;;;;;;10.25;8.15;;;21.70;56.80;;;;;;5010639;28;20208;-85
2021/07/02 09:30:03;;;;;;;10.52;8.32;;;21.80;57.20;;;;;;5005184;28;20205;-85
2021/07/02 09:32:32;;;;;;;9.10;8.20;;;21.80;55.70;;;;;;5009054;28;20187;-83
2021/07/02 09:35:00;;;;;;;9.05;8.35;;;22.10;55.70;;;;;;5014313;28;20205;-85
2021/07/02 09:37:52;;;;;;;9.85;8.82;;;21.80;55.40;;;;;;5007289;28;20194;-85
2021/07/02 09:40:32;;;;;;;9.05;8.27;;;21.70;56.30;;;;;;5014765;28;20205;-85
2021/07/02 09:43:01;;;;;;;10.23;9.05;;;21.80;55.10;;;;;;5018477;28;20181;-85
2021/07/02 09:45:28;;;;;;;9.50;8.60;;;21.90;55.10;;;;;;5011171;28;20193;-86
2021/07/02 09:47:55;;;;;;;10.23;8.30;;;22.00;54.10;;;;;;5014922;28;20204;-85
2021/07/02 09:50:25;;;;;;;10.13;8.48;;;22.00;58.20;;;;;;5018409;28;20311;-85
2021/07/02 09:52:58;;;;;;;9.88;8.18;;;22.10;56.50;;;;;;5021159;28;20212;-85
2021/07/02 09:55:40;;;;;;;8.82;8.02;;;22.30;55.80;;;;;;5011806;28;20808;-85
2021/07/02 09:58:09;;;;;;;9.73;8.73;;;22.30;55.70;;;;;;5014997;28;20199;-84
2021/07/02 10:00:41;;;;;;;10.13;7.93;;;22.00;57.30;;;;;;5012679;28;20216;-85
2021/07/02 10:03:07;;;;;;;9.32;8.43;;;21.90;56.80;;;;;;5003784;28;20525;-85
2021/07/02 10:05:52;;;;;;;9.57;8.45;;;21.80;57.10;;;;;;5011524;28;20181;-85
2021/07/02 10:08:19;;;;;;;9.40;8.50;;;21.90;58.40;;;;;;5013474;28;20221;-84
2021/07/02 10:10:45;;;;;;;10.43;9.18;;;21.80;58.90;;;;;;5011236;28;20213;-85
2021/07/02 10:13:11;;;;;;;9.13;8.05;;;21.90;56.40;;;;;;5005727;28;20420;-85
2021/07/02 10:15:37;;;;;;;8.35;7.65;;;21.80;57.30;;;;;;5009457;28;20186;-85
2021/07/02 10:18:06;;;;;;;9.07;8.18;;;21.80;57.10;;;;;;5008800;28;20182;-85
2021/07/02 10:20:33;;;;;;;8.88;7.95;;;22.00;56.00;;;;;;5001232;28;20218;-84
2021/07/02 10:23:00;;;;;;;9.10;8.20;;;22.40;54.80;;;;;;4986903;28;20296;-85
2021/07/02 10:25:29;;;;;;;8.75;7.93;;;22.40;57.20;;;;;;5005655;28;20258;-84
2021/07/02 10:27:55;;;;;;;9.60;8.70;;;22.60;55.40;;;;;;5002642;28;20236;-84
2021/07/02 10:30:21;;;;;;;9.43;8.38;;;23.00;54.10;;;;;;5005608;28;20226;-84
2021/07/02 10:32:50;;;;;;;9.07;8.20;;;23.10;52.50;;;;;;5009360;28;20186;-85
2021/07/02 10:35:16;;;;;;;9.63;8.70;;;23.30;56.30;;;;;;5010258;28;20186;-85
2021/07/02 10:37:46;;;;;;;9.15;8.30;;;23.50;54.00;;;;;;5007402;28;20197;-85
2021/07/02 10:40:41;;;;;;;9.68;8.55;;;23.40;54.50;;;;;;5005724;28;20289;-85
2021/07/02 10:43:18;;;;;;;8.52;7.72;;;23.20;51.00;;;;;;5001509;28;20189;-85
2021/07/02 10:46:10;;;;;;;8.65;7.82;;;23.00;52.60;;;;;;5000818;28;20209;-85
2021/07/02 10:49:01;;;;;;;9.70;8.05;;;22.90;53.60;;;;;;4987451;28;20715;-85
2021/07/02 10:51:30;;;;;;;10.13;8.20;;;22.40;53.70;;;;;;5009178;28;20446;-85
2021/07/02 10:54:16;;;;;;;9.52;8.63;;;22.50;55.80;;;;;;5008900;28;20213;-85
2021/07/02 10:57:02;;;;;;;9.85;7.88;;;22.80;56.20;;;;;;5003918;28;20696;-85
2021/07/02 10:59:55;;;;;;;8.63;7.38;;;23.50;51.80;;;;;;5001304;28;20218;-85
2021/07/02 11:02:22;;;;;;;8.85;8.05;;;23.90;49.40;;;;;;5004963;28;20202;-85
2021/07/02 11:04:53;;;;;;;8.40;7.70;;;23.80;49.10;;;;;;5004358;28;20236;-84
2021/07/02 11:07:18;;;;;;;9.38;8.30;;;23.30;49.20;;;;;;5013332;28;20220;-85
2021/07/02 11:09:50;;;;;;;10.30;8.45;;;23.30;50.70;;;;;;5000240;28;20301;-85
2021/07/02 11:12:16;;;;;;;10.10;8.40;;;23.10;51.60;;;;;;5002743;28;20190;-86
2021/07/02 11:14:51;;;;;;;9.35;8.65;;;22.80;53.80;;;;;;5004502;28;20182;-86
2021/07/02 11:17:30;;;;;;;9.60;8.70;;;22.70;54.80;;;;;;5012047;28;20198;-85
2021/07/02 11:22:40;;;;;;;9.02;8.13;;;22.90;53.80;;;;;;5000177;28;20561;-85
2021/07/02 11:25:15;;;;;;;9.02;8.23;;;23.20;54.60;;;;;;4999162;28;20211;-85
2021/07/02 11:28:03;;;;;;;8.88;8.18;;;23.30;52.40;;;;;;5004497;28;20260;-84
2021/07/02 11:33:16;;;;;;;9.68;8.77;;;24.00;51.50;;;;;;5017245;28;20596;-85
2021/07/02 11:35:53;;;;;;;9.38;8.57;;;24.30;50.50;;;;;;5017541;28;20617;-85
2021/07/02 11:38:20;;;;;;;9.63;8.82;;;24.20;50.60;;;;;;5001418;28;20224;-85
2021/07/02 11:40:46;;;;;;;9.70;8.77;;;24.00;51.10;;;;;;4999205;28;20206;-85
2021/07/02 11:43:12;;;;;;;10.13;8.50;;;24.10;52.70;;;;;;4999344;28;20553;-85
2021/07/02 11:45:43;;;;;;;10.73;8.45;;;24.20;49.10;;;;;;5000748;28;20198;-85
2021/07/02 11:48:26;;;;;;;11.48;8.18;;;24.50;48.80;;;;;;5007751;28;20206;-85
2021/07/02 11:50:54;;;;;;;8.85;8.00;;;24.60;47.50;;;;;;5003275;28;20272;-84
2021/07/02 11:53:26;;;;;;;9.27;8.48;;;24.90;51.70;;;;;;5003777;28;20182;-89
2021/07/02 11:55:59;;;;;;;12.43;8.30;;;24.30;49.80;;;;;;5004752;28;20277;-92
2021/07/02 11:58:45;;;;;;;9.25;8.35;;;24.30;49.50;;;;;;5006033;28;20269;-90
2021/07/02 12:01:12;;;;;;;8.73;7.90;;;24.50;47.40;;;;;;5000361;28;20190;-90
2021/07/02 12:03:50;;;;;;;9.43;8.63;;;24.90;48.50;;;;;;5009740;28;20201;-87
2021/07/02 12:06:25;;;;;;;9.15;8.45;;;25.30;46.30;;;;;;4998112;28;20193;-90
2021/07/02 12:09:11;;;;;;;9.57;8.73;;;25.10;46.00;;;;;;5010885;28;20221;-90
2021/07/02 12:11:52;;;;;;;17.25;9.38;;;25.20;46.70;;;;;;5003964;28;20415;-91
2021/07/02 12:14:29;;;;;;;8.50;7.85;;;25.50;45.70;;;;;;4993137;28;20181;-91
2021/07/02 12:16:57;;;;;;;8.93;8.15;;;25.40;47.20;;;;;;5009044;28;20544;-90
2021/07/02 12:19:25;;;;;;;8.50;7.80;;;25.90;45.50;;;;;;5005632;28;20263;-90
2021/07/02 12:21:58;;;;;;;8.88;8.18;;;26.20;43.80;;;;;;4997215;28;20187;-90
2021/07/02 12:24:26;;;;;;;8.73;7.95;;;25.90;44.20;;;;;;5000788;28;20182;-90
2021/07/02 12:26:54;;;;;;;8.73;8.02;;;25.60;45.70;;;;;;5003876;28;20206;-90
2021/07/02 12:29:20;;;;;;;8.68;7.82;;;25.70;44.50;;;;;;4998518;28;20293;-90
2021/07/02 12:31:50;;;;;;;10.02;8.27;;;25.50;46.00;;;;;;5002147;28;20184;-90
2021/07/02 12:34:25;;;;;;;8.50;7.70;;;26.10;45.50;;;;;;5019987;28;20190;-89
2021/07/02 12:37:02;;;;;;;16.58;9.43;;;26.20;44.90;;;;;;5008863;28;20186;-90
2021/07/02 12:39:31;;;;;;;8.88;8.02;;;25.50;44.50;;;;;;5002301;28;20270;-89
2021/07/02 12:41:59;;;;;;;8.35;7.55;;;24.70;48.00;;;;;;4994264;28;20201;-90
2021/07/02 12:44:26;;;;;;;19.30;9.45;;;24.30;50.10;;;;;;5010600;28;20249;-90
2021/07/02 12:46:52;;;;;;;18.40;9.07;;;24.40;50.90;;;;;;5005809;28;20617;-89
2021/07/02 12:49:23;;;;;;;18.67;9.02;;;24.80;49.20;;;;;;5005428;28;20210;-91
2021/07/02 12:54:50;;;;;;;8.35;7.60;;;26.00;47.10;;;;;;5005187;28;20568;-88
2021/07/02 12:57:24;;;;;;;11.10;8.73;;;25.80;45.20;;;;;;5006149;28;20182;-88
2021/07/02 12:59:52;;;;;;;9.75;8.75;;;25.50;46.10;;;;;;5009210;28;20272;-88